createdAt,value
2022-11-27T00:03:23.730Z,5.4
2022-11-27T00:23:24.990Z,5.2
2022-11-27T00:33:25.149Z,5.2
2022-11-27T00:43:26.234Z,5.1
2022-11-27T00:53:26.373Z,4.7
2022-11-27T01:03:27.145Z,4.6
2022-11-27T01:13:27.911Z,4.6
2022-11-27T01:23:28.191Z,4.3
2022-11-27T01:33:28.459Z,4.4
2022-11-27T01:43:29.112Z,4.4
2022-11-27T01:53:29.819Z,4.2
2022-11-27T02:03:30.095Z,3.9
2022-11-27T02:23:31.243Z,3.7
2022-11-27T02:33:31.313Z,3.6
2022-11-27T02:43:31.879Z,3.3
2022-11-27T02:53:32.739Z,3.2
2022-11-27T03:33:40.041Z,2.5
2022-11-27T03:43:40.610Z,2.5
2022-11-27T03:53:41.713Z,2.3
2022-11-27T04:23:44.006Z,2.1
2022-11-27T04:33:44.637Z,2.2
2022-11-27T04:43:44.965Z,2.2
2022-11-27T04:53:45.801Z,2.3
2022-11-27T05:13:46.798Z,2.5
2022-11-27T05:33:47.576Z,2.7
2022-11-27T05:43:47.757Z,2.6
2022-11-27T06:13:49.630Z,2.5
2022-11-27T06:33:50.794Z,2.4
2022-11-27T06:43:51.748Z,2.5
2022-11-27T06:53:52.764Z,2.5
2022-11-27T07:03:53.517Z,2.6
2022-11-27T07:13:54.047Z,2.6
2022-11-27T07:23:54.263Z,2.6
2022-11-27T07:43:55.673Z,2.9
2022-11-27T07:53:56.750Z,3.2
2022-11-27T08:03:57.400Z,3.4
2022-11-27T08:34:00.189Z,4.4
2022-11-27T08:44:02.715Z,4.8
2022-11-27T09:04:02.098Z,5.4
2022-11-27T09:14:02.326Z,5.7
2022-11-27T09:24:02.843Z,6.2
2022-11-27T09:34:03.767Z,6.5
2022-11-27T09:44:04.811Z,6.6
2022-11-27T10:04:05.454Z,7.1
2022-11-27T10:14:06.087Z,7.5
2022-11-27T10:24:06.800Z,7.7
2022-11-27T10:34:07.490Z,7.8
2022-11-27T10:44:07.706Z,7.9
2022-11-27T10:54:08.631Z,8
2022-11-27T11:04:24.603Z,8.1
2022-11-27T11:14:09.523Z,8.2
2022-11-27T11:24:10.338Z,8.3
2022-11-27T11:34:11.414Z,8.5
2022-11-27T11:44:12.206Z,8.7
2022-11-27T11:54:12.414Z,8.7
2022-11-27T12:04:12.796Z,8.9
2022-11-27T12:14:13.160Z,9
2022-11-27T12:24:13.906Z,9
2022-11-27T12:34:15.156Z,9
2022-11-27T12:54:15.843Z,8.9
2022-11-27T13:04:16.436Z,8.8
2022-11-27T13:14:17.220Z,8.7
2022-11-27T13:34:18.367Z,8.6
2022-11-27T13:44:18.524Z,8.5
2022-11-27T13:54:19.931Z,8.4
2022-11-27T14:04:19.993Z,8.4
2022-11-27T14:14:21.010Z,8.4
2022-11-27T14:24:21.822Z,8.4
2022-11-27T14:34:24.585Z,8.3
2022-11-27T14:44:22.966Z,8.2
2022-11-27T15:14:24.746Z,8
2022-11-27T15:24:25.427Z,7.8
2022-11-27T15:44:27.000Z,7.6
2022-11-27T15:54:27.599Z,7.6
2022-11-27T16:04:28.281Z,7.5
2022-11-27T16:14:28.410Z,7.4
2022-11-27T16:34:30.120Z,7.6
2022-11-27T16:54:31.792Z,7.9
2022-11-27T17:04:32.420Z,8
2022-11-27T17:14:32.640Z,7.9
2022-11-27T17:34:34.258Z,7.8
2022-11-27T17:44:35.067Z,7.8
2022-11-27T17:54:35.695Z,7.8
2022-11-27T18:04:36.569Z,7.7
2022-11-27T18:14:36.843Z,7.6
2022-11-27T18:34:38.506Z,7.5
2022-11-27T18:54:40.198Z,7.4
2022-11-27T19:04:40.899Z,7.4
2022-11-27T19:44:42.892Z,7.3
2022-11-27T20:24:58.374Z,7.2
2022-11-27T20:34:44.577Z,7.2
2022-11-27T20:44:45.118Z,7.1
2022-11-27T20:54:45.489Z,7.1
2022-11-27T21:04:46.074Z,7
2022-11-27T21:14:46.503Z,6.8
2022-11-27T21:24:46.904Z,6.8
2022-11-27T21:34:47.970Z,6.8
2022-11-27T21:44:48.336Z,6.9
2022-11-27T22:04:48.872Z,7.1
2022-11-27T22:14:49.522Z,7.1
2022-11-27T22:24:50.602Z,7.2
2022-11-27T22:44:51.328Z,7.1
2022-11-27T22:54:51.743Z,7.2
2022-11-27T23:04:52.107Z,7.2
2022-11-27T23:14:52.931Z,7.1
2022-11-27T23:24:53.604Z,6.9
2022-11-27T23:34:54.565Z,6.8
2022-11-27T23:44:55.448Z,6.9
2022-11-27T23:54:55.888Z,6.8
